Time;durP1;ratioP1;P1;durP2;ratioP2;P2;SDS_P1;SDS_P2;PMS_P1;PMS_P2;Temp;Humidity;BMP_temperature;BMP_pressure;BME280_temperature;BME280_humidity;BME280_pressure;Samples;Min_cycle;Max_cycle;Signal;HPM_P1;HPM_P2
2021/10/23 00:00:00;;;;;;;7.18;2.67;;;;;;;;;;4956033;29;20570;-73
2021/10/23 00:02:37;;;;;;;3.15;2.53;;;;;;;;;;4956167;29;20047;-73
2021/10/23 00:05:07;;;;;;;5.22;2.65;;;;;;;;;;4956213;29;20043;-75
2021/10/23 00:07:37;;;;;;;6.88;3.17;;;;;;;;;;4956396;29;20043;-73
2021/10/23 00:10:06;;;;;;;6.57;3.30;;;;;;;;;;4956097;29;20039;-72
2021/10/23 00:12:33;;;;;;;5.15;2.88;;;;;;;;;;4938700;29;20051;-74
2021/10/23 00:15:04;;;;;;;4.95;3.13;;;;;;;;;;4955403;29;20130;-74
2021/10/23 00:17:34;;;;;;;5.45;3.45;;;;;;;;;;4938654;29;20050;-75
2021/10/23 00:20:02;;;;;;;5.50;3.90;;;;;;;;;;4938753;29;20043;-75
2021/10/23 00:22:34;;;;;;;6.18;3.17;;;;;;;;;;4956130;29;20493;-75
2021/10/23 00:25:01;;;;;;;7.07;3.70;;;;;;;;;;4955587;29;20074;-72
2021/10/23 00:27:32;;;;;;;5.87;3.53;;;;;;;;;;4893840;29;1302432;-73
2021/10/23 00:30:00;;;;;;;7.38;4.05;;;;;;;;;;4956698;28;20041;-73
2021/10/23 00:32:32;;;;;;;7.88;4.03;;;;;;;;;;4956647;28;20506;-72
2021/10/23 00:35:02;;;;;;;7.53;4.07;;;;;;;;;;4956502;29;20043;-72
2021/10/23 00:37:32;;;;;;;7.65;4.60;;;;;;;;;;4956773;29;20182;-72
2021/10/23 00:40:00;;;;;;;4.75;4.03;;;;;;;;;;4952473;29;20129;-75
2021/10/23 00:42:28;;;;;;;6.45;4.10;;;;;;;;;;4953786;29;20496;-73
2021/10/23 00:44:57;;;;;;;6.85;3.75;;;;;;;;;;4956595;29;20043;-73
2021/10/23 00:47:24;;;;;;;8.43;3.83;;;;;;;;;;4955872;29;20043;-74
2021/10/23 00:49:54;;;;;;;9.40;4.28;;;;;;;;;;4955160;29;20053;-75
2021/10/23 00:52:22;;;;;;;7.18;3.80;;;;;;;;;;4955101;29;20067;-76
2021/10/23 00:54:50;;;;;;;6.07;3.83;;;;;;;;;;4954887;29;20036;-72
2021/10/23 00:57:19;;;;;;;7.18;4.03;;;;;;;;;;4954555;29;20050;-72
2021/10/23 00:59:47;;;;;;;6.22;3.90;;;;;;;;;;4955632;29;20047;-73
2021/10/23 01:02:15;;;;;;;6.78;4.32;;;;;;;;;;4954723;28;20591;-73
2021/10/23 01:04:43;;;;;;;4.57;3.88;;;;;;;;;;4956280;29;20051;-75
2021/10/23 01:07:11;;;;;;;8.45;3.95;;;;;;;;;;4939021;29;20043;-73
2021/10/23 01:09:39;;;;;;;6.70;4.50;;;;;;;;;;4938917;29;20044;-75
2021/10/23 01:12:14;;;;;;;5.60;4.28;;;;;;;;;;4955400;29;20065;-73
2021/10/23 01:14:42;;;;;;;6.20;4.13;;;;;;;;;;4955768;29;20047;-75
2021/10/23 01:17:13;;;;;;;6.18;4.03;;;;;;;;;;4955825;29;20051;-73
2021/10/23 01:19:41;;;;;;;5.82;4.53;;;;;;;;;;4955802;29;20105;-72
2021/10/23 01:22:12;;;;;;;6.38;4.25;;;;;;;;;;4956206;29;20059;-75
2021/10/23 01:24:39;;;;;;;7.55;4.72;;;;;;;;;;4938641;29;20130;-73
2021/10/23 01:27:08;;;;;;;8.18;4.68;;;;;;;;;;4938722;29;20047;-74
2021/10/23 01:29:38;;;;;;;10.20;4.47;;;;;;;;;;4954340;29;20052;-73
2021/10/23 01:32:06;;;;;;;10.30;5.13;;;;;;;;;;4955832;28;20130;-75
2021/10/23 01:34:54;;;;;;;9.65;4.78;;;;;;;;;;4946501;29;20078;-73
2021/10/23 01:37:33;;;;;;;12.18;5.22;;;;;;;;;;4955529;29;20040;-72
2021/10/23 01:40:01;;;;;;;8.57;5.00;;;;;;;;;;4938197;29;20051;-75
2021/10/23 01:42:28;;;;;;;8.65;5.07;;;;;;;;;;4955836;29;20054;-75
2021/10/23 01:44:58;;;;;;;10.88;4.80;;;;;;;;;;4955625;29;20505;-73
2021/10/23 01:47:26;;;;;;;7.28;4.80;;;;;;;;;;4954898;29;20040;-72
2021/10/23 01:49:55;;;;;;;7.18;4.50;;;;;;;;;;4937948;29;20071;-73
2021/10/23 01:52:25;;;;;;;8.52;4.35;;;;;;;;;;4955500;29;20561;-75
2021/10/23 01:54:53;;;;;;;6.93;3.88;;;;;;;;;;4937466;29;20097;-75
2021/10/23 01:57:22;;;;;;;6.85;4.25;;;;;;;;;;4954971;29;20047;-73
2021/10/23 01:59:56;;;;;;;6.88;4.45;;;;;;;;;;4955325;29;20074;-72
2021/10/23 02:02:24;;;;;;;5.65;4.30;;;;;;;;;;4938382;29;20051;-72
2021/10/23 02:04:53;;;;;;;6.38;4.38;;;;;;;;;;4954963;29;20049;-74
2021/10/23 02:07:20;;;;;;;6.75;3.75;;;;;;;;;;4955054;29;20050;-73
2021/10/23 02:09:48;;;;;;;5.28;3.88;;;;;;;;;;4954317;29;20527;-74
2021/10/23 02:12:16;;;;;;;9.95;4.25;;;;;;;;;;4954834;28;20493;-73
2021/10/23 02:14:43;;;;;;;5.47;4.05;;;;;;;;;;4954831;29;20067;-72
2021/10/23 02:17:11;;;;;;;7.53;4.00;;;;;;;;;;4937997;29;20054;-71
2021/10/23 02:19:38;;;;;;;6.43;4.32;;;;;;;;;;4955200;29;20055;-73
2021/10/23 02:22:09;;;;;;;5.97;4.47;;;;;;;;;;4938347;29;20049;-75
2021/10/23 02:24:37;;;;;;;8.95;4.10;;;;;;;;;;4937514;29;20129;-75
2021/10/23 02:27:05;;;;;;;8.55;4.22;;;;;;;;;;4937603;29;20059;-71
2021/10/23 02:29:36;;;;;;;7.13;4.38;;;;;;;;;;4954989;29;20043;-74
2021/10/23 02:32:04;;;;;;;4.65;3.88;;;;;;;;;;4954833;28;20043;-75
2021/10/23 02:34:32;;;;;;;6.78;4.60;;;;;;;;;;4954608;29;20047;-73
2021/10/23 02:37:00;;;;;;;6.65;4.15;;;;;;;;;;4954724;29;20039;-72
2021/10/23 02:39:28;;;;;;;9.48;4.47;;;;;;;;;;4937754;29;20051;-75
2021/10/23 02:41:55;;;;;;;5.80;4.28;;;;;;;;;;4955150;29;20497;-73
2021/10/23 02:44:26;;;;;;;6.80;4.57;;;;;;;;;;4937567;29;20040;-72
2021/10/23 02:46:53;;;;;;;6.20;4.22;;;;;;;;;;4954837;29;20454;-73
2021/10/23 02:49:23;;;;;;;7.03;4.35;;;;;;;;;;4937921;29;20071;-72
2021/10/23 02:51:50;;;;;;;6.78;4.80;;;;;;;;;;4954720;29;20089;-74
2021/10/23 02:54:18;;;;;;;10.73;5.07;;;;;;;;;;4954651;29;20044;-74
2021/10/23 02:56:46;;;;;;;10.45;4.60;;;;;;;;;;4954807;29;20122;-75
2021/10/23 02:59:18;;;;;;;5.82;4.85;;;;;;;;;;4954418;29;20047;-73
2021/10/23 03:01:48;;;;;;;6.50;4.60;;;;;;;;;;4954812;29;20054;-75
2021/10/23 03:04:17;;;;;;;9.55;4.93;;;;;;;;;;4954795;29;20053;-73
2021/10/23 03:06:45;;;;;;;9.35;4.50;;;;;;;;;;4937152;29;20047;-73
2021/10/23 03:09:13;;;;;;;7.72;4.72;;;;;;;;;;4954406;29;20042;-75
2021/10/23 03:11:41;;;;;;;8.10;4.32;;;;;;;;;;4954277;29;20238;-73
2021/10/23 03:14:08;;;;;;;6.65;4.38;;;;;;;;;;4954270;29;20125;-72
2021/10/23 03:16:36;;;;;;;6.70;3.92;;;;;;;;;;4954603;29;20067;-74
2021/10/23 03:19:07;;;;;;;6.43;4.30;;;;;;;;;;4937387;29;20098;-73
2021/10/23 03:21:37;;;;;;;6.40;4.13;;;;;;;;;;4954372;29;20126;-74
2021/10/23 03:24:05;;;;;;;8.18;4.55;;;;;;;;;;4954625;28;20134;-73
2021/10/23 03:26:33;;;;;;;6.47;4.00;;;;;;;;;;4941441;29;20082;-74
2021/10/23 03:29:01;;;;;;;7.60;4.10;;;;;;;;;;4957770;29;20051;-73
2021/10/23 03:31:32;;;;;;;7.25;4.22;;;;;;;;;;4957511;29;20031;-75
2021/10/23 03:34:00;;;;;;;6.13;4.30;;;;;;;;;;4956377;29;20050;-73
2021/10/23 03:36:28;;;;;;;8.35;3.95;;;;;;;;;;4924245;29;20043;-75
2021/10/23 03:38:57;;;;;;;5.53;3.90;;;;;;;;;;4940797;29;20043;-74
2021/10/23 03:41:24;;;;;;;6.55;4.25;;;;;;;;;;4940562;29;20047;-73
2021/10/23 03:43:55;;;;;;;4.68;3.45;;;;;;;;;;4940634;29;20047;-71
2021/10/23 03:46:23;;;;;;;5.57;4.00;;;;;;;;;;4957710;29;20047;-75
2021/10/23 03:48:51;;;;;;;5.57;3.58;;;;;;;;;;4940496;29;20493;-73
2021/10/23 03:51:19;;;;;;;5.55;3.75;;;;;;;;;;4957067;29;20051;-73
2021/10/23 03:53:49;;;;;;;6.97;4.00;;;;;;;;;;4940184;29;20042;-75
2021/10/23 03:56:18;;;;;;;9.25;4.22;;;;;;;;;;4940507;29;20094;-74
2021/10/23 03:58:45;;;;;;;6.55;3.83;;;;;;;;;;4940436;29;20523;-75
2021/10/23 04:01:20;;;;;;;7.40;4.30;;;;;;;;;;4940175;29;20047;-74
2021/10/23 04:03:49;;;;;;;7.70;4.60;;;;;;;;;;4957559;29;20074;-73
2021/10/23 04:06:17;;;;;;;7.28;4.50;;;;;;;;;;4956918;29;20050;-74
2021/10/23 04:08:48;;;;;;;8.45;4.88;;;;;;;;;;4957028;29;20043;-72
2021/10/23 04:11:21;;;;;;;8.63;5.05;;;;;;;;;;4939490;29;20075;-73
2021/10/23 04:13:55;;;;;;;6.72;4.65;;;;;;;;;;4956320;29;20151;-74
2021/10/23 04:16:23;;;;;;;8.48;5.05;;;;;;;;;;4956947;29;20086;-72
2021/10/23 04:18:53;;;;;;;10.02;5.00;;;;;;;;;;4939325;29;20039;-72
2021/10/23 04:21:21;;;;;;;5.90;4.63;;;;;;;;;;4956857;29;20122;-75
2021/10/23 04:23:49;;;;;;;8.13;5.32;;;;;;;;;;4939686;29;20374;-73
2021/10/23 04:26:18;;;;;;;9.90;5.30;;;;;;;;;;4956903;29;20047;-75
2021/10/23 04:28:48;;;;;;;10.45;5.40;;;;;;;;;;4956868;29;20538;-75
2021/10/23 04:31:16;;;;;;;11.43;5.50;;;;;;;;;;4956467;29;20070;-74
2021/10/23 04:33:44;;;;;;;7.68;5.43;;;;;;;;;;4939336;29;20071;-72
2021/10/23 04:36:12;;;;;;;7.32;5.40;;;;;;;;;;4938288;29;20122;-73
2021/10/23 04:38:39;;;;;;;7.45;5.43;;;;;;;;;;4939740;29;20044;-74
2021/10/23 04:41:10;;;;;;;10.27;6.32;;;;;;;;;;4956377;29;20491;-74
2021/10/23 04:43:39;;;;;;;10.57;5.75;;;;;;;;;;4923784;29;20066;-76
2021/10/23 04:46:08;;;;;;;8.70;6.35;;;;;;;;;;4939685;29;20044;-74
2021/10/23 04:48:36;;;;;;;9.35;5.97;;;;;;;;;;4955483;29;20081;-72
2021/10/23 04:51:04;;;;;;;11.45;6.57;;;;;;;;;;4956302;29;20039;-74
2021/10/23 04:53:31;;;;;;;9.68;6.85;;;;;;;;;;4939540;29;20049;-75
2021/10/23 04:56:01;;;;;;;12.20;7.47;;;;;;;;;;4938955;29;20043;-75
2021/10/23 04:58:29;;;;;;;14.07;8.02;;;;;;;;;;4956414;29;20043;-76
2021/10/23 05:00:59;;;;;;;11.07;7.25;;;;;;;;;;4956011;29;20118;-72
2021/10/23 05:03:28;;;;;;;13.05;7.65;;;;;;;;;;4955968;29;20074;-74
2021/10/23 05:05:58;;;;;;;12.80;8.32;;;;;;;;;;4956462;29;20049;-74
2021/10/23 05:08:29;;;;;;;10.10;7.47;;;;;;;;;;4938861;29;20047;-74
2021/10/23 05:10:58;;;;;;;12.27;7.78;;;;;;;;;;4955774;29;20039;-74
2021/10/23 05:13:26;;;;;;;11.65;7.78;;;;;;;;;;4938954;29;20035;-72
2021/10/23 05:15:54;;;;;;;11.85;8.18;;;;;;;;;;4954449;29;20054;-74
2021/10/23 05:18:25;;;;;;;17.98;8.05;;;;;;;;;;4955364;29;20058;-73
2021/10/23 05:20:53;;;;;;;11.02;7.40;;;;;;;;;;4955722;29;20078;-72
2021/10/23 05:23:26;;;;;;;11.63;7.35;;;;;;;;;;4955370;29;20039;-75
2021/10/23 05:25:55;;;;;;;12.63;7.68;;;;;;;;;;4938590;29;20483;-74
2021/10/23 05:28:23;;;;;;;13.38;7.72;;;;;;;;;;4955071;29;20051;-74
2021/10/23 05:30:50;;;;;;;15.07;7.60;;;;;;;;;;4937712;28;20054;-74
2021/10/23 05:33:18;;;;;;;14.18;8.18;;;;;;;;;;4943154;29;20114;-75
2021/10/23 05:35:48;;;;;;;9.55;7.47;;;;;;;;;;4936698;29;20412;-75
2021/10/23 05:38:15;;;;;;;12.23;7.45;;;;;;;;;;4937583;29;20094;-71
2021/10/23 05:40:43;;;;;;;13.65;7.15;;;;;;;;;;4955442;29;20047;-74
2021/10/23 05:43:12;;;;;;;11.40;7.20;;;;;;;;;;4954920;29;20085;-73
2021/10/23 05:45:40;;;;;;;9.57;6.30;;;;;;;;;;4937793;29;20373;-73
2021/10/23 05:48:10;;;;;;;14.25;7.22;;;;;;;;;;4954842;28;20043;-72
2021/10/23 05:50:38;;;;;;;10.88;6.68;;;;;;;;;;4954949;29;20040;-72
2021/10/23 05:53:05;;;;;;;12.93;6.32;;;;;;;;;;4938474;29;20122;-74
2021/10/23 05:55:34;;;;;;;9.05;6.03;;;;;;;;;;4938340;29;20252;-73
2021/10/23 05:58:05;;;;;;;13.15;6.00;;;;;;;;;;4955291;29;20035;-74
2021/10/23 06:00:35;;;;;;;12.85;7.53;;;;;;;;;;4954753;29;20134;-73
2021/10/23 06:03:06;;;;;;;10.70;6.30;;;;;;;;;;4954755;29;20047;-74
2021/10/23 06:05:35;;;;;;;13.20;6.15;;;;;;;;;;4955434;29;20054;-75
2021/10/23 06:08:02;;;;;;;9.38;5.68;;;;;;;;;;4954872;29;20161;-74
2021/10/23 06:10:31;;;;;;;10.77;5.63;;;;;;;;;;4954681;29;20054;-74
2021/10/23 06:13:00;;;;;;;10.07;5.75;;;;;;;;;;4937669;29;20504;-74
2021/10/23 06:15:28;;;;;;;6.40;5.03;;;;;;;;;;4937168;29;20137;-72
2021/10/23 06:17:56;;;;;;;7.47;5.05;;;;;;;;;;4937817;29;20130;-74
2021/10/23 06:20:24;;;;;;;8.35;5.10;;;;;;;;;;4953647;29;20047;-72
2021/10/23 06:22:53;;;;;;;6.03;4.55;;;;;;;;;;4954959;29;20118;-73
2021/10/23 06:25:22;;;;;;;8.32;5.00;;;;;;;;;;4937820;29;20054;-74
2021/10/23 06:27:50;;;;;;;8.88;5.95;;;;;;;;;;4937753;29;20089;-74
2021/10/23 06:30:21;;;;;;;8.00;4.40;;;;;;;;;;4952906;29;20138;-73
2021/10/23 06:32:50;;;;;;;8.45;5.18;;;;;;;;;;4954574;28;20045;-73
2021/10/23 06:35:18;;;;;;;14.90;7.25;;;;;;;;;;4954742;29;20063;-74
2021/10/23 06:37:47;;;;;;;11.00;7.03;;;;;;;;;;4938053;29;20117;-74
2021/10/23 06:40:21;;;;;;;9.90;6.03;;;;;;;;;;4945655;29;20590;-73
2021/10/23 06:42:49;;;;;;;11.60;5.55;;;;;;;;;;4931965;29;20049;-73
2021/10/23 06:45:17;;;;;;;11.45;7.00;;;;;;;;;;4932521;29;20054;-75
2021/10/23 06:47:45;;;;;;;8.98;6.13;;;;;;;;;;4933019;29;20517;-74
2021/10/23 06:50:13;;;;;;;8.13;5.57;;;;;;;;;;4932663;29;20039;-75
2021/10/23 06:52:42;;;;;;;12.23;5.25;;;;;;;;;;4931080;29;20127;-75
2021/10/23 06:55:13;;;;;;;8.60;4.68;;;;;;;;;;4931518;29;20044;-74
2021/10/23 06:57:46;;;;;;;11.43;5.70;;;;;;;;;;4915967;29;20127;-74
2021/10/23 07:00:17;;;;;;;8.77;5.22;;;;;;;;;;4933817;29;20166;-73
2021/10/23 07:02:47;;;;;;;9.25;5.25;;;;;;;;;;4935065;29;20500;-73
2021/10/23 07:05:16;;;;;;;6.28;4.50;;;;;;;;;;4935571;29;20134;-73
2021/10/23 07:07:44;;;;;;;5.38;4.00;;;;;;;;;;4903628;29;20453;-74
2021/10/23 07:10:12;;;;;;;9.05;5.05;;;;;;;;;;4934981;29;20053;-72
2021/10/23 07:12:39;;;;;;;9.57;5.55;;;;;;;;;;4936031;29;20405;-76
2021/10/23 07:15:07;;;;;;;7.85;5.43;;;;;;;;;;4936164;29;20063;-73
2021/10/23 07:17:42;;;;;;;9.90;5.87;;;;;;;;;;4935442;29;20047;-74
2021/10/23 07:20:10;;;;;;;14.18;9.23;;;;;;;;;;4934526;29;20315;-73
2021/10/23 07:22:38;;;;;;;17.42;7.50;;;;;;;;;;4936083;29;20044;-75
2021/10/23 07:25:07;;;;;;;9.30;5.90;;;;;;;;;;4935640;29;20054;-73
2021/10/23 07:27:35;;;;;;;12.48;6.32;;;;;;;;;;4934905;29;20054;-74
2021/10/23 07:30:09;;;;;;;9.45;5.95;;;;;;;;;;4919105;29;20050;-72
2021/10/23 07:32:38;;;;;;;10.95;5.80;;;;;;;;;;4931017;29;20118;-74
2021/10/23 07:35:06;;;;;;;9.85;6.00;;;;;;;;;;4935662;29;20044;-72
2021/10/23 07:37:34;;;;;;;11.40;6.05;;;;;;;;;;4940524;29;20055;-75
2021/10/23 07:40:06;;;;;;;13.82;6.15;;;;;;;;;;4957409;29;20047;-72
2021/10/23 07:42:34;;;;;;;24.57;6.33;;;;;;;;;;4957055;29;20418;-74
2021/10/23 07:45:07;;;;;;;7.75;4.10;;;;;;;;;;4957184;29;20051;-74
2021/10/23 07:47:35;;;;;;;9.57;4.37;;;;;;;;;;4940188;29;20050;-75
2021/10/23 07:50:03;;;;;;;10.10;4.05;;;;;;;;;;4957464;29;20044;-72
2021/10/23 07:52:30;;;;;;;10.60;4.43;;;;;;;;;;4940433;29;20134;-73
2021/10/23 07:55:00;;;;;;;8.90;4.43;;;;;;;;;;4957233;29;20066;-72
2021/10/23 07:57:34;;;;;;;9.18;4.95;;;;;;;;;;4939437;29;20142;-75
2021/10/23 08:00:02;;;;;;;8.80;4.43;;;;;;;;;;4940223;29;20039;-74
2021/10/23 08:02:57;;;;;;;6.97;3.80;;;;;;;;;;4941481;29;20043;-73
2021/10/23 08:05:30;;;;;;;9.15;4.68;;;;;;;;;;4957004;29;20042;-74
2021/10/23 08:07:58;;;;;;;6.95;4.15;;;;;;;;;;4957277;29;20489;-71
2021/10/23 08:10:26;;;;;;;12.85;4.07;;;;;;;;;;4956233;28;20123;-73
2021/10/23 08:13:12;;;;;;;7.32;4.05;;;;;;;;;;4942466;29;20039;-75
2021/10/23 08:15:40;;;;;;;8.95;4.60;;;;;;;;;;4908287;29;20039;-74
2021/10/23 08:18:08;;;;;;;8.45;4.30;;;;;;;;;;4935104;29;20596;-74
2021/10/23 08:20:37;;;;;;;7.85;4.55;;;;;;;;;;4933904;29;20134;-76
2021/10/23 08:23:05;;;;;;;9.20;4.22;;;;;;;;;;4934805;29;20101;-76
2021/10/23 08:25:34;;;;;;;9.30;4.38;;;;;;;;;;4934621;29;20070;-73
2021/10/23 08:28:02;;;;;;;5.50;4.03;;;;;;;;;;5055016;23;20093;-78
2021/10/23 08:30:37;;;;;;;8.18;4.40;;;;;;;;;;4973126;28;20043;-77
2021/10/23 08:33:06;;;;;;;7.55;4.20;;;;;;;;;;4973527;28;20046;-79
2021/10/23 08:35:33;;;;;;;8.52;4.50;;;;;;;;;;4975760;28;20125;-71
2021/10/23 08:38:02;;;;;;;8.68;4.50;;;;;;;;;;4976064;28;20488;-72
2021/10/23 08:40:34;;;;;;;7.07;4.30;;;;;;;;;;4958437;28;20039;-77
2021/10/23 08:43:06;;;;;;;11.52;4.25;;;;;;;;;;4975935;28;20046;-72
2021/10/23 08:45:35;;;;;;;8.07;4.40;;;;;;;;;;4975965;28;20047;-72
2021/10/23 08:48:03;;;;;;;11.85;4.88;;;;;;;;;;4975807;28;20412;-78
2021/10/23 08:50:31;;;;;;;10.85;4.50;;;;;;;;;;4975428;28;20480;-71
2021/10/23 08:53:02;;;;;;;12.77;4.40;;;;;;;;;;4975390;28;20126;-78
2021/10/23 08:55:31;;;;;;;10.30;4.57;;;;;;;;;;4974810;28;20125;-72
2021/10/23 08:57:59;;;;;;;11.02;4.30;;;;;;;;;;4942003;28;20508;-72
2021/10/23 09:00:26;;;;;;;12.30;4.47;;;;;;;;;;4975559;28;20047;-72
2021/10/23 09:02:55;;;;;;;11.27;4.55;;;;;;;;;;4975588;28;20094;-78
2021/10/23 09:05:24;;;;;;;8.18;4.70;;;;;;;;;;4942157;28;20049;-72
2021/10/23 09:07:52;;;;;;;12.10;5.60;;;;;;;;;;4975178;28;20097;-78
2021/10/23 09:10:26;;;;;;;10.93;4.50;;;;;;;;;;4974625;28;20431;-79
2021/10/23 09:13:09;;;;;;;12.88;5.28;;;;;;;;;;4958479;28;20047;-79
2021/10/23 09:15:38;;;;;;;9.45;4.85;;;;;;;;;;4975768;28;20042;-78
2021/10/23 09:18:09;;;;;;;9.65;4.50;;;;;;;;;;4975062;28;20039;-72
2021/10/23 09:20:40;;;;;;;8.50;4.47;;;;;;;;;;4975137;28;20471;-78
2021/10/23 09:23:18;;;;;;;10.73;4.85;;;;;;;;;;4975068;28;20049;-78
2021/10/23 09:25:46;;;;;;;14.25;5.38;;;;;;;;;;4974698;28;20066;-79
2021/10/23 09:28:15;;;;;;;12.07;5.57;;;;;;;;;;4974871;28;20073;-79
2021/10/23 09:30:43;;;;;;;11.60;4.50;;;;;;;;;;4957370;28;20146;-72
2021/10/23 09:33:25;;;;;;;13.95;4.93;;;;;;;;;;4974757;28;20377;-78
2021/10/23 09:35:55;;;;;;;7.55;4.00;;;;;;;;;;4974831;28;20041;-72
2021/10/23 09:38:23;;;;;;;8.00;3.75;;;;;;;;;;4974293;28;20499;-77
2021/10/23 09:40:52;;;;;;;10.00;4.20;;;;;;;;;;4974878;28;20129;-71
2021/10/23 09:43:20;;;;;;;12.63;3.83;;;;;;;;;;4974465;28;20065;-77
2021/10/23 09:46:02;;;;;;;15.07;4.47;;;;;;;;;;4974728;28;20046;-72
2021/10/23 09:48:37;;;;;;;8.05;4.30;;;;;;;;;;4957412;28;20121;-72
2021/10/23 09:51:17;;;;;;;10.55;4.78;;;;;;;;;;4974482;28;20074;-80
2021/10/23 09:53:47;;;;;;;8.70;4.38;;;;;;;;;;4974185;28;20093;-79
2021/10/23 09:56:20;;;;;;;10.50;4.15;;;;;;;;;;4974545;28;20086;-80
2021/10/23 09:58:59;;;;;;;7.65;5.03;;;;;;;;;;4974566;28;20055;-72
2021/10/23 10:01:28;;;;;;;10.20;4.72;;;;;;;;;;4974645;28;20046;-72
2021/10/23 10:03:57;;;;;;;10.40;4.18;;;;;;;;;;4974008;28;20050;-72
2021/10/23 10:06:28;;;;;;;12.77;4.70;;;;;;;;;;4974310;28;20051;-78
2021/10/23 10:08:56;;;;;;;13.63;5.57;;;;;;;;;;4974214;28;20106;-72
2021/10/23 10:11:24;;;;;;;9.73;4.53;;;;;;;;;;4974009;28;20039;-78
2021/10/23 10:13:52;;;;;;;11.68;4.85;;;;;;;;;;4974129;28;20042;-72
2021/10/23 10:16:20;;;;;;;15.70;4.82;;;;;;;;;;4974222;28;20077;-80
2021/10/23 10:18:48;;;;;;;7.72;4.18;;;;;;;;;;4957205;28;20095;-72
2021/10/23 10:21:18;;;;;;;10.05;4.25;;;;;;;;;;4974036;28;20050;-79
2021/10/23 10:23:47;;;;;;;9.70;4.00;;;;;;;;;;4957091;28;20039;-72
2021/10/23 10:26:23;;;;;;;10.70;3.97;;;;;;;;;;4973899;28;20451;-79
2021/10/23 10:29:10;;;;;;;9.00;4.20;;;;;;;;;;4973488;28;20478;-77
2021/10/23 10:31:45;;;;;;;8.35;3.90;;;;;;;;;;4967658;28;20511;-79
2021/10/23 10:34:16;;;;;;;9.75;3.97;;;;;;;;;;4959618;28;20070;-72
2021/10/23 10:37:11;;;;;;;9.52;4.45;;;;;;;;;;4976548;28;20074;-72
2021/10/23 10:39:55;;;;;;;6.53;3.95;;;;;;;;;;4978092;28;20122;-78
2021/10/23 10:45:29;;;;;;;12.38;5.30;;;;;;;;;;4977941;28;20130;-72
2021/10/23 10:48:16;;;;;;;14.25;4.60;;;;;;;;;;4977664;28;20070;-73
2021/10/23 10:50:54;;;;;;;10.00;4.63;;;;;;;;;;4977466;28;20051;-77
2021/10/23 10:53:31;;;;;;;13.05;4.70;;;;;;;;;;4960469;28;20080;-72
2021/10/23 10:56:02;;;;;;;16.10;5.00;;;;;;;;;;4960929;28;20667;-73
2021/10/23 10:58:41;;;;;;;11.25;5.13;;;;;;;;;;4960534;28;20053;-78
2021/10/23 11:01:13;;;;;;;8.95;4.25;;;;;;;;;;4976990;28;20508;-72
2021/10/23 11:03:42;;;;;;;11.05;4.70;;;;;;;;;;4960324;28;20561;-81
2021/10/23 11:06:49;;;;;;;10.52;4.50;;;;;;;;;;4976959;28;20492;-72
2021/10/23 11:09:16;;;;;;;17.13;5.13;;;;;;;;;;4912850;28;20058;-73
2021/10/23 11:12:03;;;;;;;11.93;4.72;;;;;;;;;;4976752;28;20074;-78
2021/10/23 11:14:39;;;;;;;11.07;4.20;;;;;;;;;;4977346;28;20051;-73
2021/10/23 11:17:19;;;;;;;16.42;5.55;;;;;;;;;;4975423;28;20515;-78
2021/10/23 11:19:50;;;;;;;13.48;5.35;;;;;;;;;;4959823;28;20046;-72
2021/10/23 11:22:20;;;;;;;13.15;4.97;;;;;;;;;;4977203;28;20138;-72
2021/10/23 11:25:03;;;;;;;11.25;4.95;;;;;;;;;;4977126;28;20145;-79
2021/10/23 11:27:30;;;;;;;;;;;;;;;;;;4977336;28;20469;-72
2021/10/23 11:30:02;;;;;;;14.30;5.15;;;;;;;;;;4976900;28;20388;-72
2021/10/23 11:32:30;;;;;;;11.93;4.97;;;;;;;;;;4976954;28;20043;-78
2021/10/23 11:34:59;;;;;;;10.73;5.20;;;;;;;;;;4976632;28;20050;-72
2021/10/23 11:37:28;;;;;;;15.35;5.20;;;;;;;;;;4977446;28;20054;-81
2021/10/23 11:40:00;;;;;;;15.40;5.43;;;;;;;;;;4959701;28;20129;-78
2021/10/23 11:42:28;;;;;;;8.07;4.63;;;;;;;;;;4976906;28;20050;-73
2021/10/23 11:45:29;;;;;;;16.73;5.05;;;;;;;;;;4976967;28;20101;-73
2021/10/23 11:48:02;;;;;;;12.32;4.93;;;;;;;;;;4942054;28;20504;-80
2021/10/23 11:50:32;;;;;;;20.25;5.30;;;;;;;;;;4976165;28;20043;-78
2021/10/23 11:53:02;;;;;;;9.45;4.63;;;;;;;;;;4976663;28;20097;-79
2021/10/23 11:55:34;;;;;;;14.43;5.93;;;;;;;;;;4976756;28;20043;-81
2021/10/23 11:58:04;;;;;;;14.50;5.35;;;;;;;;;;4975335;28;20045;-73
2021/10/23 12:00:35;;;;;;;14.60;5.65;;;;;;;;;;4976437;28;20043;-79
2021/10/23 12:03:05;;;;;;;18.75;7.15;;;;;;;;;;4976094;28;20412;-78
2021/10/23 12:05:42;;;;;;;17.52;6.35;;;;;;;;;;4976345;28;20047;-78
2021/10/23 12:08:09;;;;;;;15.10;4.95;;;;;;;;;;4976442;28;20050;-73
2021/10/23 12:10:57;;;;;;;12.38;5.10;;;;;;;;;;4958476;28;20142;-78
2021/10/23 12:13:26;;;;;;;9.98;5.28;;;;;;;;;;4976157;28;20047;-80
2021/10/23 12:16:07;;;;;;;17.80;5.45;;;;;;;;;;4976210;28;20488;-73
2021/10/23 12:18:35;;;;;;;16.17;5.55;;;;;;;;;;4975813;28;20428;-78
2021/10/23 12:21:11;;;;;;;16.88;5.80;;;;;;;;;;4976117;28;20385;-81
2021/10/23 12:23:52;;;;;;;9.63;5.28;;;;;;;;;;4959452;28;20366;-79
2021/10/23 12:26:25;;;;;;;15.90;5.68;;;;;;;;;;4958707;28;20109;-79
2021/10/23 12:28:56;;;;;;;12.18;5.18;;;;;;;;;;4958304;28;20049;-80
2021/10/23 12:31:23;;;;;;;11.07;5.47;;;;;;;;;;4958695;28;20129;-80
2021/10/23 12:34:03;;;;;;;12.55;5.25;;;;;;;;;;4975204;28;20047;-72
2021/10/23 12:36:33;;;;;;;11.38;4.88;;;;;;;;;;4958586;28;20049;-72
2021/10/23 12:39:20;;;;;;;17.90;6.18;;;;;;;;;;4975763;28;20074;-72
2021/10/23 12:41:48;;;;;;;10.30;5.43;;;;;;;;;;4976008;28;20121;-78
2021/10/23 12:44:23;;;;;;;16.98;5.80;;;;;;;;;;4975495;28;20047;-72
2021/10/23 12:46:53;;;;;;;14.13;5.95;;;;;;;;;;4975716;28;20484;-72
2021/10/23 12:49:22;;;;;;;16.85;6.28;;;;;;;;;;4975591;28;20204;-79
2021/10/23 12:51:50;;;;;;;11.40;5.28;;;;;;;;;;4975490;28;20093;-79
2021/10/23 12:54:18;;;;;;;13.60;5.45;;;;;;;;;;4975630;28;20035;-80
2021/10/23 12:56:46;;;;;;;10.23;5.28;;;;;;;;;;4957801;28;20122;-79
2021/10/23 12:59:14;;;;;;;10.57;5.70;;;;;;;;;;4958227;28;20043;-77
2021/10/23 13:01:42;;;;;;;11.02;5.32;;;;;;;;;;4975213;28;20053;-79
2021/10/23 13:04:10;;;;;;;13.13;5.55;;;;;;;;;;4975265;28;20101;-72
2021/10/23 13:06:41;;;;;;;9.18;4.95;;;;;;;;;;4975370;28;20057;-80
2021/10/23 13:09:08;;;;;;;13.70;4.85;;;;;;;;;;4975031;28;20046;-72
2021/10/23 13:11:40;;;;;;;11.90;4.68;;;;;;;;;;4975130;28;20042;-73
2021/10/23 13:14:08;;;;;;;12.68;4.70;;;;;;;;;;4974918;28;20093;-78
2021/10/23 13:16:36;;;;;;;9.23;4.72;;;;;;;;;;4974810;28;20121;-78
2021/10/23 13:19:05;;;;;;;10.98;4.75;;;;;;;;;;4975058;28;20496;-72
2021/10/23 13:21:32;;;;;;;9.57;4.70;;;;;;;;;;4958037;28;20039;-80
2021/10/23 13:24:00;;;;;;;10.25;4.70;;;;;;;;;;4975088;28;20066;-80
2021/10/23 13:26:27;;;;;;;14.23;4.80;;;;;;;;;;4974901;28;20444;-78
2021/10/23 13:28:59;;;;;;;11.60;5.38;;;;;;;;;;4974943;28;20042;-72
2021/10/23 13:31:26;;;;;;;12.20;5.15;;;;;;;;;;4974293;28;20061;-72
2021/10/23 13:33:54;;;;;;;10.70;5.05;;;;;;;;;;4975026;28;20047;-78
2021/10/23 13:36:22;;;;;;;7.47;4.50;;;;;;;;;;4974423;28;20047;-78
2021/10/23 13:38:51;;;;;;;12.52;5.95;;;;;;;;;;4957277;28;20058;-78
2021/10/23 13:41:18;;;;;;;14.05;4.82;;;;;;;;;;4974830;28;20043;-73
2021/10/23 13:43:46;;;;;;;13.43;5.30;;;;;;;;;;4974641;28;20047;-79
2021/10/23 13:46:16;;;;;;;13.93;4.68;;;;;;;;;;4974546;28;20113;-72
2021/10/23 13:48:47;;;;;;;15.80;4.93;;;;;;;;;;4974759;28;20042;-80
2021/10/23 13:51:17;;;;;;;13.95;5.57;;;;;;;;;;4957537;28;20043;-78
2021/10/23 13:53:45;;;;;;;13.43;4.78;;;;;;;;;;4974310;28;20031;-72
2021/10/23 13:56:13;;;;;;;14.55;5.50;;;;;;;;;;4974623;28;20452;-78
2021/10/23 13:58:40;;;;;;;14.98;6.32;;;;;;;;;;4974737;28;20062;-79
2021/10/23 14:01:11;;;;;;;14.88;5.78;;;;;;;;;;4974081;28;20432;-80
2021/10/23 14:03:41;;;;;;;16.05;6.22;;;;;;;;;;4974052;28;20138;-78
2021/10/23 14:06:08;;;;;;;17.70;5.80;;;;;;;;;;4974296;28;20566;-72
2021/10/23 14:08:36;;;;;;;13.52;5.65;;;;;;;;;;4959513;28;20620;-72
2021/10/23 14:11:05;;;;;;;16.42;5.95;;;;;;;;;;4957822;28;20486;-72
2021/10/23 14:13:36;;;;;;;16.20;5.97;;;;;;;;;;4973680;28;20065;-72
2021/10/23 14:16:03;;;;;;;13.90;6.05;;;;;;;;;;4974011;28;20038;-72
2021/10/23 14:18:31;;;;;;;16.23;5.95;;;;;;;;;;4974238;28;20066;-72
2021/10/23 14:21:01;;;;;;;14.65;6.15;;;;;;;;;;4957304;28;20043;-78
2021/10/23 14:23:28;;;;;;;12.85;5.90;;;;;;;;;;4957473;28;20049;-77
2021/10/23 14:25:59;;;;;;;18.70;6.40;;;;;;;;;;4974047;28;20134;-72
2021/10/23 14:31:01;;;;;;;13.05;6.00;;;;;;;;;;4974185;28;20051;-72
2021/10/23 14:33:30;;;;;;;14.70;6.05;;;;;;;;;;4974061;28;20416;-75
2021/10/23 14:35:58;;;;;;;17.25;6.18;;;;;;;;;;4973980;28;20039;-78
2021/10/23 14:38:27;;;;;;;16.23;6.05;;;;;;;;;;4957645;28;20050;-72
2021/10/23 14:40:54;;;;;;;16.02;5.55;;;;;;;;;;4974142;28;20058;-80
2021/10/23 14:43:22;;;;;;;11.45;5.40;;;;;;;;;;4973997;28;20050;-80
2021/10/23 14:45:50;;;;;;;15.18;6.38;;;;;;;;;;4974281;28;20070;-80
2021/10/23 14:48:17;;;;;;;17.50;6.20;;;;;;;;;;4973642;28;20065;-78
2021/10/23 14:50:49;;;;;;;10.35;5.40;;;;;;;;;;4974184;28;20093;-72
2021/10/23 14:53:17;;;;;;;16.98;5.40;;;;;;;;;;4973632;28;20070;-80
2021/10/23 14:55:45;;;;;;;12.90;5.72;;;;;;;;;;4973421;28;20050;-72
2021/10/23 14:58:12;;;;;;;13.00;6.07;;;;;;;;;;4972977;28;20043;-72